Time;durP1;ratioP1;P1;durP2;ratioP2;P2;SDS_P1;SDS_P2;PMS_P1;PMS_P2;Temp;Humidity;BMP_temperature;BMP_pressure;BME280_temperature;BME280_humidity;BME280_pressure;Samples;Min_cycle;Max_cycle;Signal;HPM_P1;HPM_P2
2023/04/15 00:00:41;;;;;;;7.88;4.25;;;20.90;67.70;;;;;;4826561;29;94734;-89
2023/04/15 00:03:07;;;;;;;5.72;4.05;;;20.90;67.70;;;;;;4868109;28;92410;-90
2023/04/15 00:05:33;;;;;;;6.90;4.10;;;20.90;67.60;;;;;;4899482;28;92555;-89
2023/04/15 00:08:01;;;;;;;6.10;4.32;;;20.90;67.60;;;;;;4883434;28;93983;-90
2023/04/15 00:10:27;;;;;;;5.95;3.97;;;20.90;67.60;;;;;;4883401;28;94604;-91
2023/04/15 00:12:53;;;;;;;6.90;4.20;;;20.90;67.40;;;;;;4883153;28;92979;-90
2023/04/15 00:15:19;;;;;;;6.95;4.50;;;20.90;67.60;;;;;;4897542;28;92505;-89
2023/04/15 00:17:45;;;;;;;5.55;4.28;;;20.90;67.60;;;;;;4917197;28;96091;-90
2023/04/15 00:20:11;;;;;;;6.10;3.97;;;20.80;67.60;;;;;;4967245;28;95449;-91
2023/04/15 00:22:36;;;;;;;7.07;4.40;;;20.80;67.50;;;;;;4969605;28;92696;-90
2023/04/15 00:25:02;;;;;;;6.35;4.28;;;20.80;67.50;;;;;;4986555;28;92220;-90
2023/04/15 00:27:29;;;;;;;8.18;4.20;;;20.80;67.60;;;;;;4954219;28;95579;-90
2023/04/15 00:29:55;;;;;;;6.43;4.05;;;20.80;67.70;;;;;;4981200;28;93652;-89
2023/04/15 00:32:21;;;;;;;5.35;3.90;;;20.80;67.60;;;;;;4968381;28;93204;-89
2023/04/15 00:34:46;;;;;;;6.22;4.38;;;20.80;67.50;;;;;;4968763;28;91481;-90
2023/04/15 00:37:12;;;;;;;4.60;3.70;;;20.80;67.60;;;;;;4979640;28;95241;-89
2023/04/15 00:39:38;;;;;;;4.95;3.85;;;20.80;68.40;;;;;;4945847;28;95138;-89
2023/04/15 00:42:04;;;;;;;6.90;4.93;;;20.80;67.50;;;;;;4905523;28;94779;-89
2023/04/15 00:44:31;;;;;;;6.43;3.65;;;20.70;67.50;;;;;;4905524;28;92295;-90
2023/04/15 00:46:57;;;;;;;5.10;3.70;;;20.70;67.50;;;;;;4889493;28;96977;-89
2023/04/15 00:49:23;;;;;;;6.63;3.75;;;20.70;67.60;;;;;;4906055;28;94647;-90
2023/04/15 00:51:49;;;;;;;6.43;3.92;;;20.70;67.60;;;;;;4881338;28;92819;-90
2023/04/15 00:54:15;;;;;;;6.45;4.18;;;20.70;67.70;;;;;;4881214;28;92329;-90
2023/04/15 00:56:41;;;;;;;7.28;4.45;;;20.70;67.60;;;;;;4886299;28;96246;-90
2023/04/15 00:59:07;;;;;;;4.75;3.97;;;20.70;67.60;;;;;;4886678;28;93668;-89
2023/04/15 01:01:37;;;;;;;5.20;3.58;;;20.70;67.50;;;;;;4887210;28;93388;-88
2023/04/15 01:04:03;;;;;;;5.60;3.97;;;20.70;67.70;;;;;;4865373;28;92669;-90
2023/04/15 01:06:32;;;;;;;5.38;4.10;;;20.70;67.90;;;;;;4869898;28;97345;-90
2023/04/15 01:08:59;;;;;;;5.75;3.83;;;20.70;67.70;;;;;;4869809;28;96390;-88
2023/04/15 01:11:25;;;;;;;6.05;3.80;;;20.70;67.70;;;;;;4891823;28;92960;-89
2023/04/15 01:13:51;;;;;;;4.70;3.83;;;20.70;67.60;;;;;;4918511;28;92548;-90
2023/04/15 01:16:18;;;;;;;5.13;3.55;;;20.60;67.60;;;;;;4906203;28;92977;-88
2023/04/15 01:18:44;;;;;;;5.40;3.90;;;20.60;67.60;;;;;;4906102;28;95006;-91
2023/04/15 01:21:10;;;;;;;6.20;4.03;;;20.60;67.60;;;;;;4907457;28;92330;-89
2023/04/15 01:23:37;;;;;;;6.45;4.10;;;20.60;67.70;;;;;;4908366;28;91936;-91
2023/04/15 01:26:04;;;;;;;5.07;3.53;;;20.60;67.60;;;;;;4890852;28;95450;-89
2023/04/15 01:28:33;;;;;;;6.03;4.15;;;20.60;67.60;;;;;;4878066;28;93875;-90
2023/04/15 01:31:06;;;;;;;4.72;3.63;;;20.60;67.70;;;;;;4912311;28;93713;-89
2023/04/15 01:33:32;;;;;;;5.50;3.88;;;20.60;67.50;;;;;;4895489;28;92708;-90
2023/04/15 01:35:58;;;;;;;4.72;3.55;;;20.60;67.60;;;;;;4895020;28;95489;-89
2023/04/15 01:38:25;;;;;;;5.43;3.63;;;20.60;67.50;;;;;;4911787;28;95026;-88
2023/04/15 01:40:51;;;;;;;4.32;3.30;;;20.60;67.50;;;;;;4895804;28;93054;-89
2023/04/15 01:43:17;;;;;;;4.68;3.13;;;20.60;67.70;;;;;;4910853;28;93002;-90
2023/04/15 01:45:43;;;;;;;5.68;3.83;;;20.50;67.40;;;;;;4911864;28;95222;-90
2023/04/15 01:48:09;;;;;;;7.30;3.65;;;20.60;67.50;;;;;;4947479;28;98872;-90
2023/04/15 01:50:36;;;;;;;6.07;3.55;;;20.50;67.40;;;;;;4894007;28;92577;-90
2023/04/15 01:53:02;;;;;;;5.60;3.78;;;20.50;67.30;;;;;;4909930;28;92814;-90
2023/04/15 01:55:29;;;;;;;5.78;3.80;;;20.50;67.50;;;;;;4893202;28;94975;-88
2023/04/15 01:57:55;;;;;;;5.05;3.22;;;20.50;67.40;;;;;;4878745;28;96921;-89
2023/04/15 02:00:21;;;;;;;4.95;3.45;;;20.50;67.40;;;;;;4876654;28;92728;-91
2023/04/15 02:02:47;;;;;;;4.70;3.63;;;20.50;67.50;;;;;;4875573;28;93279;-90
2023/04/15 02:05:13;;;;;;;4.68;3.10;;;20.50;67.50;;;;;;4889078;28;96114;-91
2023/04/15 02:07:39;;;;;;;5.40;3.60;;;20.50;67.30;;;;;;4893508;28;93433;-89
2023/04/15 02:10:05;;;;;;;5.68;3.90;;;20.50;67.50;;;;;;4909052;28;92513;-89
2023/04/15 02:12:30;;;;;;;3.92;3.28;;;20.50;67.50;;;;;;4910575;28;91681;-89
2023/04/15 02:14:56;;;;;;;4.65;3.50;;;20.50;67.40;;;;;;4909108;28;93323;-89
2023/04/15 02:17:22;;;;;;;4.13;3.28;;;20.50;67.40;;;;;;4893630;28;95000;-91
2023/04/15 02:19:48;;;;;;;3.55;3.10;;;20.50;67.10;;;;;;4893681;28;93325;-90
2023/04/15 02:22:17;;;;;;;6.53;3.75;;;20.40;67.20;;;;;;4945144;28;92706;-90
2023/04/15 02:24:44;;;;;;;4.93;3.50;;;20.40;67.20;;;;;;4968134;28;94331;-90
2023/04/15 02:27:13;;;;;;;3.90;3.30;;;20.40;67.20;;;;;;4987773;28;99261;-88
2023/04/15 02:29:38;;;;;;;5.13;3.22;;;20.40;67.20;;;;;;4938476;28;92750;-90
2023/04/15 02:32:04;;;;;;;4.70;3.33;;;20.40;67.20;;;;;;4937622;28;92209;-89
2023/04/15 02:34:31;;;;;;;5.30;3.47;;;20.40;67.20;;;;;;4934114;28;96121;-90
2023/04/15 02:36:57;;;;;;;5.28;3.47;;;20.40;67.30;;;;;;4929713;28;96324;-90
2023/04/15 02:39:23;;;;;;;4.85;3.58;;;20.40;67.30;;;;;;4935134;28;92377;-91
2023/04/15 02:41:52;;;;;;;4.53;3.40;;;20.40;67.30;;;;;;4937909;28;92702;-89
2023/04/15 02:44:19;;;;;;;4.32;3.38;;;20.40;67.30;;;;;;4939777;28;95947;-89
2023/04/15 02:46:51;;;;;;;5.00;3.50;;;20.40;67.30;;;;;;4923250;28;93728;-89
2023/04/15 02:49:17;;;;;;;4.57;3.30;;;20.40;67.30;;;;;;4922822;28;92549;-90
2023/04/15 02:51:46;;;;;;;4.63;3.33;;;20.40;67.30;;;;;;4920751;28;92343;-90
2023/04/15 02:54:12;;;;;;;4.57;3.40;;;20.40;67.20;;;;;;4939993;28;97432;-91
2023/04/15 02:56:37;;;;;;;3.50;3.10;;;20.40;67.30;;;;;;4921131;28;94592;-89
2023/04/15 02:59:03;;;;;;;5.50;3.58;;;20.40;68.10;;;;;;4915263;28;92605;-91
2023/04/15 03:01:29;;;;;;;4.15;3.05;;;20.40;67.20;;;;;;4919267;28;92254;-90
2023/04/15 03:03:55;;;;;;;5.53;3.63;;;20.30;67.20;;;;;;4914441;28;95706;-91
2023/04/15 03:06:20;;;;;;;4.32;2.97;;;20.30;67.20;;;;;;4920463;28;92761;-90
2023/04/15 03:08:46;;;;;;;4.70;3.42;;;20.30;67.20;;;;;;4878298;28;93483;-89
2023/04/15 03:11:13;;;;;;;3.60;3.10;;;20.30;67.00;;;;;;4863564;28;92653;-91
2023/04/15 03:13:40;;;;;;;4.00;3.40;;;20.30;67.10;;;;;;4864071;28;95069;-90
2023/04/15 03:16:06;;;;;;;4.13;3.38;;;20.20;66.90;;;;;;4878792;28;96108;-90
2023/04/15 03:18:32;;;;;;;3.63;3.03;;;20.30;66.90;;;;;;4863974;28;93426;-90
2023/04/15 03:20:57;;;;;;;3.80;2.85;;;20.20;67.00;;;;;;4861203;28;92265;-90
2023/04/15 03:23:24;;;;;;;4.45;2.92;;;20.30;67.20;;;;;;4849324;28;95723;-90
2023/04/15 03:25:49;;;;;;;4.90;3.00;;;20.20;67.10;;;;;;4862977;28;93533;-90
2023/04/15 03:28:15;;;;;;;3.63;2.97;;;20.20;66.90;;;;;;4878825;28;92426;-89
2023/04/15 03:30:41;;;;;;;3.83;3.10;;;20.20;66.70;;;;;;4874985;28;92536;-90
2023/04/15 03:33:07;;;;;;;4.10;3.22;;;20.20;66.90;;;;;;4890853;28;99391;-90
2023/04/15 03:35:33;;;;;;;4.28;3.13;;;20.20;66.90;;;;;;4895910;28;97282;-90
2023/04/15 03:37:59;;;;;;;3.47;2.58;;;20.20;67.00;;;;;;4880146;28;92128;-90
2023/04/15 03:40:25;;;;;;;4.72;3.13;;;20.20;66.90;;;;;;4898957;28;92959;-90
2023/04/15 03:42:50;;;;;;;3.90;3.05;;;20.20;66.80;;;;;;4888721;28;95603;-90
2023/04/15 03:45:16;;;;;;;4.70;3.03;;;20.20;66.90;;;;;;4891877;28;92799;-90
2023/04/15 03:47:42;;;;;;;5.68;3.50;;;20.20;66.70;;;;;;4892409;28;92492;-90
2023/04/15 03:50:08;;;;;;;2.97;2.53;;;20.20;66.80;;;;;;4892476;28;92353;-91
2023/04/15 03:52:33;;;;;;;4.32;3.28;;;20.20;67.00;;;;;;4890998;28;95510;-89
2023/04/15 03:54:59;;;;;;;3.53;2.67;;;20.10;66.60;;;;;;4928423;28;92962;-90
2023/04/15 03:57:25;;;;;;;5.40;3.42;;;20.10;66.90;;;;;;4935422;28;93864;-89
2023/04/15 03:59:50;;;;;;;4.80;2.92;;;20.10;66.90;;;;;;4920764;28;92182;-90
2023/04/15 04:02:16;;;;;;;3.88;3.08;;;20.10;66.70;;;;;;4920636;28;96819;-90
2023/04/15 04:04:42;;;;;;;4.07;3.13;;;20.10;66.70;;;;;;4916528;28;96093;-89
2023/04/15 04:07:13;;;;;;;3.53;2.55;;;20.10;66.70;;;;;;4869163;28;92535;-89
2023/04/15 04:09:40;;;;;;;4.53;3.00;;;20.10;66.70;;;;;;4854368;28;92844;-90
2023/04/15 04:12:06;;;;;;;3.35;2.85;;;20.10;66.80;;;;;;4870652;28;93613;-90
2023/04/15 04:14:31;;;;;;;4.15;2.90;;;20.10;66.60;;;;;;4899263;28;92640;-90
2023/04/15 04:16:57;;;;;;;3.80;2.80;;;20.10;66.70;;;;;;4901407;28;92657;-90
2023/04/15 04:19:23;;;;;;;3.60;2.83;;;20.10;66.90;;;;;;4889900;28;92057;-90
2023/04/15 04:21:48;;;;;;;3.05;2.70;;;20.10;66.70;;;;;;4905165;28;96184;-90
2023/04/15 04:24:14;;;;;;;4.65;3.20;;;20.10;66.90;;;;;;4902278;28;96490;-89
2023/04/15 04:26:40;;;;;;;4.18;3.05;;;20.10;66.90;;;;;;4888850;28;92688;-90
2023/04/15 04:29:06;;;;;;;2.88;2.40;;;20.10;66.80;;;;;;4900691;28;92771;-90
2023/04/15 04:31:31;;;;;;;3.45;2.80;;;20.10;66.80;;;;;;4905921;28;95440;-91
2023/04/15 04:33:57;;;;;;;4.53;2.72;;;20.10;66.90;;;;;;4896612;28;95555;-91
2023/04/15 04:36:23;;;;;;;3.55;2.75;;;20.10;67.00;;;;;;4891613;28;92998;-89
2023/04/15 04:38:48;;;;;;;4.18;3.28;;;20.10;66.80;;;;;;4928421;28;91604;-89
2023/04/15 04:41:14;;;;;;;4.65;2.60;;;20.10;66.80;;;;;;4917754;28;93843;-91
2023/04/15 04:43:40;;;;;;;4.75;3.15;;;20.10;67.00;;;;;;4911183;28;96247;-88
2023/04/15 04:46:05;;;;;;;4.18;3.28;;;20.10;66.70;;;;;;4918874;28;93895;-89
2023/04/15 04:48:31;;;;;;;4.45;2.90;;;20.10;66.90;;;;;;4918266;28;93054;-90
2023/04/15 04:50:57;;;;;;;4.00;2.50;;;20.00;66.80;;;;;;4915807;28;96544;-89
2023/04/15 04:53:22;;;;;;;3.63;2.50;;;20.00;66.80;;;;;;4913584;28;95993;-90
2023/04/15 04:55:48;;;;;;;5.57;2.85;;;20.00;66.80;;;;;;4932158;28;92855;-89
2023/04/15 04:58:14;;;;;;;5.38;2.95;;;20.00;66.80;;;;;;4937598;28;92631;-89
2023/04/15 05:00:40;;;;;;;3.63;2.35;;;20.00;66.90;;;;;;4938549;28;96603;-90
2023/04/15 05:03:06;;;;;;;3.17;2.70;;;20.00;66.80;;;;;;4928967;28;94877;-91
2023/04/15 05:05:33;;;;;;;3.00;2.70;;;20.00;66.70;;;;;;4898148;28;92804;-90
2023/04/15 05:07:58;;;;;;;3.38;2.92;;;20.00;66.90;;;;;;4891771;28;93127;-91
2023/04/15 05:10:24;;;;;;;3.20;2.67;;;20.00;66.70;;;;;;4891360;28;96661;-92
2023/04/15 05:12:50;;;;;;;3.33;2.70;;;20.10;66.50;;;;;;4905291;28;94414;-91
2023/04/15 05:15:16;;;;;;;4.47;3.15;;;20.10;66.30;;;;;;4896716;28;92862;-93
2023/04/15 05:17:44;;;;;;;3.50;2.50;;;20.10;64.50;;;;;;4895429;28;92856;-91
2023/04/15 05:20:11;;;;;;;3.95;2.60;;;20.10;64.60;;;;;;4921445;28;94728;-89
2023/04/15 05:22:37;;;;;;;2.90;2.30;;;20.10;64.90;;;;;;4915227;28;96322;-91
2023/04/15 05:25:02;;;;;;;4.43;2.88;;;20.10;64.50;;;;;;4873842;28;92795;-90
2023/04/15 05:27:28;;;;;;;7.07;2.85;;;20.20;65.30;;;;;;4802430;29;92370;-90
2023/04/15 05:29:55;;;;;;;5.82;2.38;;;20.20;65.00;;;;;;4799997;29;95992;-91
2023/04/15 05:32:21;;;;;;;3.40;2.50;;;20.20;63.00;;;;;;4813683;29;95154;-90
2023/04/15 05:34:46;;;;;;;6.75;2.58;;;20.10;62.30;;;;;;4804241;29;93676;-90
2023/04/15 05:37:12;;;;;;;4.88;2.80;;;20.10;60.70;;;;;;4806574;29;92806;-91
2023/04/15 05:39:38;;;;;;;4.70;2.50;;;20.10;61.50;;;;;;4825115;29;95510;-90
2023/04/15 05:42:04;;;;;;;5.47;2.60;;;20.10;62.20;;;;;;4805298;29;94031;-91
2023/04/15 05:44:30;;;;;;;5.25;2.72;;;20.10;63.50;;;;;;4823716;29;93061;-91
2023/04/15 05:46:56;;;;;;;3.33;2.15;;;20.10;63.90;;;;;;4821515;29;92365;-91
2023/04/15 05:49:22;;;;;;;4.07;2.35;;;20.10;64.30;;;;;;4820312;29;96911;-91
2023/04/15 05:51:48;;;;;;;3.58;2.55;;;20.10;63.80;;;;;;4821892;29;94576;-92
2023/04/15 05:54:15;;;;;;;3.45;2.40;;;20.10;64.00;;;;;;4798835;29;92188;-91
2023/04/15 05:56:40;;;;;;;10.68;3.30;;;20.10;63.70;;;;;;4851841;28;93051;-91
2023/04/15 05:59:06;;;;;;;13.25;3.70;;;20.10;63.30;;;;;;4866859;28;95528;-91
2023/04/15 06:01:33;;;;;;;6.70;3.22;;;20.10;62.90;;;;;;4870744;28;94285;-93
2023/04/15 06:03:59;;;;;;;13.98;3.60;;;20.10;63.00;;;;;;4858632;28;92555;-91
2023/04/15 06:06:26;;;;;;;6.65;2.60;;;20.10;63.30;;;;;;4928872;28;92075;-92
2023/04/15 06:08:54;;;;;;;4.32;2.80;;;20.10;63.80;;;;;;4907198;28;95933;-92
2023/04/15 06:11:20;;;;;;;6.60;2.60;;;20.10;63.80;;;;;;4914176;28;94736;-91
2023/04/15 06:13:46;;;;;;;7.65;2.88;;;20.20;63.40;;;;;;4913054;28;92682;-90
2023/04/15 06:16:12;;;;;;;5.28;2.50;;;20.20;63.50;;;;;;4908704;28;91834;-94
2023/04/15 06:18:38;;;;;;;7.45;2.90;;;20.20;63.90;;;;;;4896301;28;95608;-93
2023/04/15 06:21:04;;;;;;;10.20;3.55;;;20.40;63.90;;;;;;4904910;28;94633;-90
2023/04/15 06:23:35;;;;;;;8.20;2.90;;;20.50;64.50;;;;;;4910847;28;93538;-93
2023/04/15 06:26:01;;;;;;;8.20;2.92;;;20.60;64.30;;;;;;4898507;28;92755;-92
2023/04/15 06:28:26;;;;;;;7.20;2.65;;;20.70;64.50;;;;;;4914118;28;92252;-91
2023/04/15 06:30:53;;;;;;;6.18;3.00;;;20.80;64.40;;;;;;4887012;28;93906;-92
2023/04/15 06:33:18;;;;;;;6.57;2.90;;;20.90;64.20;;;;;;4892699;28;92934;-91
2023/04/15 06:35:44;;;;;;;6.28;3.05;;;21.00;64.20;;;;;;4893043;28;92135;-89
2023/04/15 06:38:10;;;;;;;6.47;3.28;;;21.10;64.20;;;;;;4893990;28;93527;-91
2023/04/15 06:40:36;;;;;;;7.20;3.05;;;21.10;64.30;;;;;;4893871;28;95276;-93
2023/04/15 06:43:03;;;;;;;7.28;3.15;;;21.20;63.70;;;;;;4894033;28;92748;-91
2023/04/15 06:45:30;;;;;;;8.32;3.58;;;21.20;64.60;;;;;;4898795;28;92113;-91
2023/04/15 06:47:56;;;;;;;6.72;3.03;;;21.20;63.80;;;;;;4911029;28;97242;-93
2023/04/15 06:50:23;;;;;;;6.93;2.90;;;21.20;63.70;;;;;;4891570;28;94180;-89
2023/04/15 06:52:48;;;;;;;5.72;2.85;;;21.10;63.70;;;;;;4892739;28;92431;-91
2023/04/15 06:55:14;;;;;;;6.13;2.80;;;21.10;64.10;;;;;;4875470;28;92421;-91
2023/04/15 06:57:40;;;;;;;8.73;3.08;;;21.10;64.20;;;;;;4893029;28;94920;-90
2023/04/15 07:00:10;;;;;;;9.30;3.28;;;21.10;64.10;;;;;;4893023;28;93737;-91
2023/04/15 07:02:35;;;;;;;8.32;2.67;;;21.00;64.00;;;;;;4901964;28;92575;-90
2023/04/15 07:05:01;;;;;;;6.25;3.00;;;21.10;64.20;;;;;;4903013;28;91489;-93
2023/04/15 07:07:27;;;;;;;5.57;3.03;;;21.10;64.20;;;;;;4895825;28;94372;-91
2023/04/15 07:09:53;;;;;;;7.85;3.20;;;21.20;63.80;;;;;;4897321;28;95560;-92
2023/04/15 07:12:19;;;;;;;6.35;2.97;;;21.20;64.00;;;;;;4901861;28;93463;-92
2023/04/15 07:14:45;;;;;;;10.88;3.55;;;21.30;63.90;;;;;;4899639;28;93300;-90
2023/04/15 07:17:12;;;;;;;8.48;3.50;;;21.40;61.30;;;;;;4898564;28;94174;-89
2023/04/15 07:19:37;;;;;;;7.22;2.60;;;21.50;62.10;;;;;;4899379;28;93942;-92
2023/04/15 07:22:03;;;;;;;5.75;2.90;;;21.50;62.10;;;;;;4914874;28;93573;-89
2023/04/15 07:24:29;;;;;;;8.50;3.33;;;21.60;62.30;;;;;;4904963;28;92646;-92
2023/04/15 07:26:57;;;;;;;7.75;2.67;;;21.70;62.00;;;;;;4891495;28;94671;-90
2023/04/15 07:29:23;;;;;;;7.97;3.13;;;21.70;61.70;;;;;;4952058;28;93256;-93
2023/04/15 07:31:48;;;;;;;11.38;3.45;;;21.80;61.70;;;;;;4916217;28;92487;-90
2023/04/15 07:34:15;;;;;;;6.28;2.80;;;21.80;61.90;;;;;;4922588;28;92042;-90
2023/04/15 07:36:41;;;;;;;6.32;2.88;;;21.80;61.30;;;;;;4929673;28;94236;-89
2023/04/15 07:39:07;;;;;;;5.63;2.83;;;21.90;61.60;;;;;;4911548;28;93693;-91
2023/04/15 07:41:33;;;;;;;7.22;3.30;;;21.80;61.60;;;;;;4898035;28;92913;-93
2023/04/15 07:57:27;;;;;;;4.85;2.42;;;22.00;60.70;;;;;;4972433;23;92807;-90
2023/04/15 07:59:53;;;;;;;10.00;3.22;;;22.10;60.50;;;;;;4996020;28;93737;-88
2023/04/15 08:02:48;;;;;;;11.93;3.20;;;22.10;61.10;;;;;;4992097;28;95933;-88
2023/04/15 08:05:14;;;;;;;11.23;3.90;;;22.00;59.00;;;;;;4994188;28;93690;-91
2023/04/15 08:07:41;;;;;;;7.30;2.88;;;21.90;59.90;;;;;;4993953;28;92293;-89
2023/04/15 08:10:07;;;;;;;9.25;3.10;;;21.90;61.30;;;;;;4980958;28;94598;-90
2023/04/15 08:12:36;;;;;;;5.85;2.97;;;21.90;61.30;;;;;;4990602;28;92293;-87
2023/04/15 08:15:07;;;;;;;7.40;3.08;;;21.90;61.10;;;;;;4976242;28;92066;-90
2023/04/15 08:17:32;;;;;;;6.47;2.53;;;22.00;61.10;;;;;;5004601;28;92267;-88
2023/04/15 08:20:04;;;;;;;7.22;3.05;;;22.00;60.90;;;;;;5004227;28;93875;-90
2023/04/15 08:22:30;;;;;;;5.93;3.10;;;22.00;60.90;;;;;;5003930;28;92881;-89
2023/04/15 08:24:56;;;;;;;7.07;2.67;;;22.00;60.70;;;;;;5005309;28;92578;-90
2023/04/15 08:27:22;;;;;;;11.18;3.30;;;22.00;60.90;;;;;;5001659;28;92507;-91
2023/04/15 08:29:48;;;;;;;5.45;2.92;;;22.10;60.90;;;;;;5006642;28;94032;-93
2023/04/15 08:32:13;;;;;;;4.32;2.47;;;22.10;61.00;;;;;;4977579;28;96206;-90
2023/04/15 08:34:39;;;;;;;6.32;2.72;;;22.10;61.30;;;;;;4980008;28;92024;-91
2023/04/15 08:37:05;;;;;;;6.47;3.25;;;22.10;61.30;;;;;;4979453;28;92308;-89
2023/04/15 08:39:31;;;;;;;4.65;2.70;;;22.20;61.50;;;;;;4976672;28;94710;-89
2023/04/15 08:42:02;;;;;;;7.43;2.90;;;22.10;61.50;;;;;;4978426;28;92994;-88
2023/04/15 08:44:35;;;;;;;7.60;3.10;;;22.20;61.60;;;;;;4993254;28;92653;-88
2023/04/15 08:47:01;;;;;;;6.47;2.85;;;22.20;61.50;;;;;;4993086;28;91726;-87
2023/04/15 08:49:28;;;;;;;6.85;2.50;;;22.20;61.30;;;;;;4975297;28;95829;-90
2023/04/15 08:51:55;;;;;;;7.32;2.70;;;22.20;61.40;;;;;;4980418;28;94171;-89
2023/04/15 08:54:21;;;;;;;7.20;2.53;;;22.20;61.50;;;;;;4985695;28;93005;-90
2023/04/15 08:56:47;;;;;;;7.55;2.88;;;22.20;61.70;;;;;;4987883;28;92681;-90
2023/04/15 08:59:15;;;;;;;7.15;2.85;;;22.10;61.80;;;;;;4975464;28;94905;-91
2023/04/15 09:01:40;;;;;;;5.45;2.78;;;22.20;61.70;;;;;;4983842;28;97012;-90
2023/04/15 09:04:11;;;;;;;7.25;2.90;;;22.20;61.90;;;;;;4986678;28;92258;-91
2023/04/15 09:06:38;;;;;;;7.13;2.78;;;22.20;61.80;;;;;;4986417;28;92007;-87
2023/04/15 09:09:04;;;;;;;4.75;2.85;;;22.10;61.70;;;;;;4968134;28;96815;-90
2023/04/15 09:11:30;;;;;;;5.82;2.45;;;22.10;62.10;;;;;;5005576;28;93322;-90
2023/04/15 09:13:56;;;;;;;5.82;2.70;;;22.10;62.10;;;;;;5008045;28;92077;-90
2023/04/15 09:16:22;;;;;;;5.68;2.90;;;22.10;61.90;;;;;;5006887;28;93263;-90
2023/04/15 09:18:47;;;;;;;8.32;3.17;;;22.10;62.00;;;;;;5005786;28;93264;-85
2023/04/15 09:21:16;;;;;;;7.60;2.90;;;22.10;61.70;;;;;;5007018;28;93275;-86
2023/04/15 09:23:55;;;;;;;7.47;2.97;;;22.10;60.60;;;;;;5008197;28;92492;-88
2023/04/15 09:26:33;;;;;;;6.57;3.00;;;22.10;58.40;;;;;;5008612;28;92045;-87
2023/04/15 09:29:13;;;;;;;16.20;3.63;;;22.10;56.50;;;;;;5004695;28;93220;-88
2023/04/15 09:31:39;;;;;;;62.28;18.45;;;22.10;54.80;;;;;;5007760;28;93456;-89
2023/04/15 09:34:05;;;;;;;43.92;12.18;;;22.10;55.10;;;;;;5005010;28;92451;-89
2023/04/15 09:36:46;;;;;;;36.30;11.30;;;22.00;54.20;;;;;;5007116;28;91564;-86
2023/04/15 09:42:34;;;;;;;36.03;10.68;;;22.00;53.30;;;;;;4957158;28;92476;-93
2023/04/15 09:45:12;;;;;;;59.13;16.55;;;22.00;53.00;;;;;;4955616;28;92873;-88
2023/04/15 09:47:38;;;;;;;51.20;15.65;;;21.90;56.80;;;;;;4939428;28;94749;-93
2023/04/15 09:50:04;;;;;;;52.03;14.85;;;21.90;58.10;;;;;;4955639;28;96604;-91
2023/04/15 09:52:30;;;;;;;55.58;16.17;;;22.00;59.40;;;;;;4954132;28;96384;-92
2023/04/15 09:54:57;;;;;;;56.78;15.90;;;22.00;59.50;;;;;;4956056;28;92604;-90
2023/04/15 09:57:23;;;;;;;46.88;15.60;;;22.00;60.80;;;;;;4955458;28;92717;-89
2023/04/15 09:59:50;;;;;;;49.78;14.80;;;22.00;61.00;;;;;;4956359;28;94170;-89
2023/04/15 10:02:18;;;;;;;53.78;15.30;;;22.00;61.40;;;;;;4939216;28;96801;-89
2023/04/15 10:04:44;;;;;;;48.35;14.43;;;22.10;61.90;;;;;;4945995;28;93900;-88
2023/04/15 10:10:38;;;;;;;56.85;15.13;;;22.00;62.30;;;;;;4979043;28;93587;-90
2023/04/15 10:13:05;;;;;;;45.92;14.80;;;21.90;62.00;;;;;;4976817;28;97056;-90
2023/04/15 10:15:32;;;;;;;39.00;10.90;;;22.00;61.90;;;;;;4992852;28;92255;-89
2023/04/15 10:18:00;;;;;;;31.13;10.20;;;22.10;58.60;;;;;;4960449;28;92826;-89
2023/04/15 10:20:27;;;;;;;30.95;10.48;;;21.90;57.70;;;;;;4976296;28;94213;-86
2023/04/15 10:22:54;;;;;;;30.38;9.55;;;21.90;57.00;;;;;;4958464;28;97622;-87
2023/04/15 10:25:20;;;;;;;36.83;12.27;;;21.90;56.00;;;;;;4977541;28;92764;-88
2023/04/15 10:27:47;;;;;;;42.78;12.63;;;21.90;58.20;;;;;;4957798;28;91408;-88
2023/04/15 10:30:14;;;;;;;32.50;11.15;;;21.90;59.40;;;;;;4975392;28;92508;-85
2023/04/15 10:32:43;;;;;;;37.75;11.43;;;21.90;59.00;;;;;;4968554;28;92941;-86
2023/04/15 10:35:10;;;;;;;34.53;10.85;;;21.90;58.60;;;;;;4975263;28;93411;-90
2023/04/15 10:37:37;;;;;;;28.50;10.48;;;21.80;58.30;;;;;;4977502;28;92298;-88
2023/04/15 10:40:32;;;;;;;30.98;10.68;;;21.80;58.60;;;;;;4974935;28;92695;-86
2023/04/15 10:49:49;;;;;;;27.35;9.35;;;21.80;58.80;;;;;;4977805;28;92254;-90
2023/04/15 10:52:16;;;;;;;35.70;10.45;;;21.80;58.30;;;;;;4985004;28;96412;-89
2023/04/15 10:54:43;;;;;;;29.27;9.82;;;21.80;59.00;;;;;;4975146;28;92930;-89
2023/04/15 10:57:15;;;;;;;32.08;8.90;;;21.80;58.50;;;;;;4975678;28;92390;-88
2023/04/15 10:59:58;;;;;;;27.38;8.45;;;21.80;58.90;;;;;;4978469;28;92353;-89
2023/04/15 11:02:52;;;;;;;28.80;9.30;;;21.80;59.30;;;;;;4982352;28;96481;-89
2023/04/15 11:09:08;;;;;;;20.25;8.05;;;21.80;59.60;;;;;;4935011;28;91964;-89
2023/04/15 11:12:07;;;;;;;26.70;9.20;;;21.80;59.70;;;;;;4937248;28;92334;-89
2023/04/15 11:14:34;;;;;;;20.20;8.60;;;21.90;59.60;;;;;;4944276;28;101574;-87
2023/04/15 11:17:00;;;;;;;18.55;7.57;;;21.80;59.90;;;;;;4920076;28;93368;-89
2023/04/15 11:19:34;;;;;;;28.48;8.65;;;21.80;59.90;;;;;;4916237;28;92083;-89
2023/04/15 11:22:06;;;;;;;25.33;7.75;;;21.80;60.00;;;;;;4916654;28;91611;-91
2023/04/15 11:24:32;;;;;;;26.10;7.82;;;21.80;59.70;;;;;;4908006;28;96129;-86
2023/04/15 11:26:58;;;;;;;28.90;7.97;;;21.80;59.80;;;;;;4917214;28;92654;-88
2023/04/15 11:29:32;;;;;;;21.80;8.13;;;21.70;59.80;;;;;;4931270;28;93551;-88
2023/04/15 11:32:06;;;;;;;27.73;8.65;;;21.70;60.20;;;;;;4914246;28;92172;-87
2023/04/15 11:34:31;;;;;;;25.30;8.35;;;21.70;59.70;;;;;;4915158;28;94582;-89
2023/04/15 11:36:57;;;;;;;25.08;8.05;;;21.70;59.80;;;;;;4923773;28;94890;-90
2023/04/15 11:39:23;;;;;;;22.05;8.23;;;21.70;60.00;;;;;;4918634;28;92953;-89
2023/04/15 11:41:48;;;;;;;22.65;8.52;;;21.60;60.20;;;;;;4945064;28;92109;-90
2023/04/15 11:47:24;;;;;;;22.65;8.20;;;21.70;60.20;;;;;;5010957;27;1343759;-89
2023/04/15 11:49:50;;;;;;;20.67;7.55;;;21.60;60.10;;;;;;5028415;28;85705;-89
2023/04/15 11:52:15;;;;;;;24.10;8.45;;;21.60;60.50;;;;;;5026852;27;86739;-89
2023/04/15 11:54:41;;;;;;;20.42;8.27;;;21.60;60.50;;;;;;5027051;27;86349;-89
2023/04/15 11:57:07;;;;;;;21.85;7.82;;;21.60;60.60;;;;;;5040140;27;87226;-89
2023/04/15 11:59:42;;;;;;;21.98;7.78;;;21.60;60.20;;;;;;5055651;27;86102;-89
2023/04/15 12:02:12;;;;;;;18.95;7.47;;;21.60;60.10;;;;;;5058978;27;85808;-89
2023/04/15 12:04:38;;;;;;;20.45;7.60;;;21.60;60.50;;;;;;5041084;27;88744;-90
2023/04/15 12:07:06;;;;;;;18.58;7.13;;;21.60;60.60;;;;;;5029018;27;89153;-90
2023/04/15 12:09:36;;;;;;;22.70;7.88;;;21.60;60.60;;;;;;5031467;27;86564;-92
2023/04/15 12:12:02;;;;;;;19.20;7.35;;;21.50;60.30;;;;;;5047526;27;86419;-91
2023/04/15 12:14:30;;;;;;;16.58;6.75;;;21.50;59.60;;;;;;5032235;27;89075;-91
2023/04/15 12:17:04;;;;;;;15.65;6.50;;;21.50;60.20;;;;;;5051426;27;89460;-90
2023/04/15 12:19:35;;;;;;;21.23;7.30;;;21.50;59.60;;;;;;5020581;27;86497;-90
2023/04/15 12:25:34;;;;;;;18.17;6.82;;;21.50;60.70;;;;;;5044059;27;86907;-89
2023/04/15 12:27:59;;;;;;;18.65;6.93;;;21.50;61.00;;;;;;5029993;27;88545;-90
2023/04/15 12:30:25;;;;;;;21.10;7.03;;;21.50;61.10;;;;;;5048539;27;86571;-90
2023/04/15 12:32:51;;;;;;;18.48;8.05;;;21.50;61.00;;;;;;5045638;27;85932;-91
2023/04/15 12:35:18;;;;;;;16.42;6.38;;;21.50;61.20;;;;;;5047070;27;87420;-91
2023/04/15 12:37:43;;;;;;;19.25;7.22;;;21.50;61.60;;;;;;5029697;27;90068;-89
2023/04/15 12:40:09;;;;;;;16.13;6.28;;;21.50;62.20;;;;;;5045526;27;86294;-90
2023/04/15 12:42:35;;;;;;;17.45;6.93;;;21.60;61.80;;;;;;5047324;27;85812;-91
2023/04/15 12:45:01;;;;;;;16.63;6.80;;;21.60;62.20;;;;;;5045793;27;87457;-90
2023/04/15 12:47:26;;;;;;;19.67;6.80;;;21.60;62.60;;;;;;5045337;27;89605;-91
2023/04/15 12:49:52;;;;;;;21.85;7.95;;;21.60;62.60;;;;;;5047276;27;85535;-91
2023/04/15 12:52:18;;;;;;;22.10;7.40;;;21.60;63.00;;;;;;5060845;27;86357;-90
2023/04/15 12:54:43;;;;;;;18.80;6.32;;;21.50;63.10;;;;;;5046464;27;89080;-91
2023/04/15 12:57:09;;;;;;;25.48;6.95;;;21.50;63.10;;;;;;5038202;27;87262;-90
2023/04/15 12:59:35;;;;;;;15.00;5.80;;;21.50;63.30;;;;;;5032001;28;86091;-90
2023/04/15 13:02:01;;;;;;;19.90;6.80;;;21.60;63.00;;;;;;5031502;28;85748;-92
2023/04/15 13:04:29;;;;;;;20.13;6.75;;;21.60;62.90;;;;;;5034630;28;88836;-92
2023/04/15 13:06:55;;;;;;;14.98;6.43;;;21.60;62.60;;;;;;5048539;27;88698;-90
2023/04/15 13:09:25;;;;;;;13.18;6.25;;;21.60;61.50;;;;;;5035955;28;86157;-87
2023/04/15 13:11:51;;;;;;;18.48;7.20;;;21.60;62.10;;;;;;5030516;27;86004;-88
2023/04/15 13:14:17;;;;;;;17.75;6.78;;;21.60;62.40;;;;;;5032261;28;89332;-86
2023/04/15 13:16:43;;;;;;;16.92;6.40;;;21.60;62.60;;;;;;5032531;28;86908;-84
2023/04/15 13:19:08;;;;;;;14.85;6.18;;;21.60;62.80;;;;;;5032456;28;86090;-85